createdAt,value
2023-01-18T00:04:08.520Z,14.13
2023-01-18T00:09:14.010Z,14.02
2023-01-18T00:14:15.542Z,14.95
2023-01-18T00:19:17.085Z,13.75
2023-01-18T00:24:18.839Z,15.07
2023-01-18T00:29:20.431Z,14.10
2023-01-18T00:34:22.051Z,14.32
2023-01-18T00:39:23.635Z,14.75
2023-01-18T00:44:25.157Z,15.60
2023-01-18T00:49:26.679Z,15.30
2023-01-18T00:54:30.561Z,15.63
2023-01-18T00:59:32.102Z,13.45
2023-01-18T01:04:52.244Z,16.02
2023-01-18T01:09:53.773Z,14.82
2023-01-18T01:15:14.075Z,14.82
2023-01-18T01:20:39.409Z,14.60
2023-01-18T01:26:00.747Z,14.07
2023-01-18T01:31:04.186Z,15.25
2023-01-18T01:36:28.445Z,15.05
2023-01-18T01:41:33.006Z,14.73
2023-01-18T01:46:44.094Z,15.95
2023-01-18T01:51:55.256Z,15.95
2023-01-18T01:57:06.020Z,13.43
2023-01-18T02:02:08.118Z,14.35
2023-01-18T02:07:11.255Z,13.13
2023-01-18T02:12:13.542Z,12.07
2023-01-18T02:17:49.029Z,12.60
2023-01-18T02:23:07.234Z,11.13
2023-01-18T02:28:17.695Z,11.68
2023-01-18T02:33:44.261Z,10.85
2023-01-18T02:38:48.514Z,12.13
2023-01-18T02:44:14.648Z,12.30
2023-01-18T02:49:23.377Z,12.07
2023-01-18T02:54:24.937Z,12.30
2023-01-18T02:59:42.739Z,11.98
2023-01-18T03:04:57.096Z,12.18
2023-01-18T03:10:02.491Z,11.57
2023-01-18T03:15:29.911Z,11.35
2023-01-18T03:20:35.187Z,12.07
2023-01-18T03:25:41.224Z,11.65
2023-01-18T03:31:04.038Z,12.70
2023-01-18T03:36:10.574Z,13.10
2023-01-18T03:41:13.592Z,12.68
2023-01-18T03:46:19.953Z,11.32
2023-01-18T03:51:54.643Z,12.25
2023-01-18T03:57:28.113Z,10.90
2023-01-18T04:02:29.729Z,10.88
2023-01-18T04:07:34.111Z,13.07
2023-01-18T04:12:35.702Z,13.50
2023-01-18T04:17:39.851Z,12.88
2023-01-18T04:22:41.355Z,14.13
2023-01-18T04:27:42.858Z,14.18
2023-01-18T04:32:46.232Z,14.73
2023-01-18T04:37:52.500Z,14.80
2023-01-18T04:42:54.687Z,14.18
2023-01-18T04:47:56.419Z,15.00
2023-01-18T04:52:58.574Z,13.55
2023-01-18T04:58:01.113Z,12.98
2023-01-18T05:03:02.689Z,15.73
2023-01-18T05:08:04.323Z,14.23
2023-01-18T05:13:06.022Z,15.68
2023-01-18T05:18:07.562Z,14.88
2023-01-18T05:23:10.573Z,16.30
2023-01-18T05:28:12.150Z,13.95
2023-01-18T05:33:13.691Z,15.65
2023-01-18T05:38:15.353Z,14.57
2023-01-18T05:43:16.876Z,13.07
2023-01-18T05:48:18.811Z,13.32
2023-01-18T05:53:21.974Z,12.65
2023-01-18T05:58:24.122Z,12.85
2023-01-18T06:03:26.021Z,12.23
2023-01-18T06:08:28.133Z,11.57
2023-01-18T06:13:31.367Z,11.95
2023-01-18T06:18:33.517Z,13.60
2023-01-18T06:23:35.352Z,13.27
2023-01-18T06:28:36.926Z,12.60
2023-01-18T06:33:38.527Z,12.85
2023-01-18T06:38:41.300Z,14.45
2023-01-18T06:43:42.822Z,13.10
2023-01-18T06:48:44.363Z,12.75
2023-01-18T06:53:46.017Z,12.77
2023-01-18T06:58:47.905Z,12.10
2023-01-18T07:03:50.168Z,14.55
2023-01-18T07:08:52.015Z,12.55
2023-01-18T07:13:53.896Z,12.93
2023-01-18T07:18:55.651Z,13.38
2023-01-18T07:23:58.399Z,11.93
2023-01-18T07:29:00.065Z,12.80
2023-01-18T07:34:01.624Z,12.82
2023-01-18T07:39:09.447Z,11.82
2023-01-18T07:44:11.901Z,11.85
2023-01-18T07:49:13.459Z,11.25
2023-01-18T07:54:16.946Z,10.90
2023-01-18T07:59:18.686Z,12.73
2023-01-18T08:04:26.218Z,14.10
2023-01-18T08:09:27.757Z,16.55
2023-01-18T08:14:29.324Z,14.63
2023-01-18T08:19:30.867Z,15.00
2023-01-18T08:24:32.426Z,11.30
2023-01-18T08:29:34.155Z,11.90
2023-01-18T08:34:37.891Z,12.48
2023-01-18T08:39:39.454Z,15.45
2023-01-18T08:44:41.014Z,13.65
2023-01-18T08:49:42.525Z,12.75
2023-01-18T08:54:44.096Z,10.88
2023-01-18T08:59:45.617Z,10.52
2023-01-18T09:04:48.636Z,11.95
2023-01-18T09:09:50.181Z,11.50
2023-01-18T09:14:51.891Z,11.70
2023-01-18T09:19:54.448Z,11.55
2023-01-18T09:24:57.019Z,13.48
2023-01-18T09:29:58.776Z,9.40
2023-01-18T09:35:02.374Z,12.18
2023-01-18T09:40:04.299Z,10.57
2023-01-18T09:45:06.414Z,9.43
2023-01-18T09:50:20.838Z,9.85
2023-01-18T09:55:37.238Z,8.88
2023-01-18T10:00:46.343Z,8.25
2023-01-18T10:06:08.624Z,8.55
2023-01-18T10:11:31.655Z,8.90
2023-01-18T10:16:34.986Z,9.82
2023-01-18T10:21:47.421Z,9.13
2023-01-18T10:26:57.156Z,11.50
2023-01-18T10:37:35.636Z,8.55
2023-01-18T10:42:47.895Z,7.78
2023-01-18T10:47:51.379Z,13.00
2023-01-18T10:52:52.916Z,9.07
2023-01-18T10:57:54.867Z,9.02
2023-01-18T11:02:58.077Z,9.02
2023-01-18T11:08:24.385Z,9.48
2023-01-18T11:13:32.068Z,9.65
2023-01-18T11:18:33.982Z,8.48
2023-01-18T11:23:36.448Z,7.97
2023-01-18T11:28:58.469Z,8.50
2023-01-18T11:34:08.413Z,8.18
2023-01-18T11:39:19.522Z,8.23
2023-01-18T11:44:34.925Z,6.90
2023-01-18T11:49:46.739Z,8.52
2023-01-18T11:54:53.284Z,8.57
2023-01-18T11:59:55.201Z,7.97
2023-01-18T12:05:28.684Z,9.27
2023-01-18T12:10:42.095Z,7.75
2023-01-18T12:16:02.475Z,7.78
2023-01-18T12:21:11.019Z,8.40
2023-01-18T12:26:24.901Z,8.18
2023-01-18T12:31:38.579Z,8.00
2023-01-18T12:37:17.983Z,7.63
2023-01-18T12:42:47.498Z,7.72
2023-01-18T12:48:21.870Z,8.30
2023-01-18T12:54:05.712Z,7.18
2023-01-18T12:59:15.823Z,8.15
2023-01-18T13:04:36.062Z,8.13
2023-01-18T13:09:43.752Z,7.93
2023-01-18T13:15:15.323Z,8.20
2023-01-18T13:20:21.108Z,8.93
2023-01-18T13:25:55.183Z,9.52
2023-01-18T13:31:02.029Z,12.32
2023-01-18T13:36:15.319Z,8.98
2023-01-18T13:41:23.656Z,9.30
2023-01-18T13:46:27.437Z,8.48
2023-01-18T13:51:41.225Z,9.80
2023-01-18T13:57:04.350Z,8.50
2023-01-18T14:02:36.063Z,9.60
2023-01-18T14:07:43.148Z,8.57
2023-01-18T14:12:50.778Z,9.77
2023-01-18T14:17:58.518Z,7.78
2023-01-18T14:23:28.749Z,9.27
2023-01-18T14:28:36.730Z,7.72
2023-01-18T14:33:42.382Z,7.20
2023-01-18T14:38:43.952Z,7.57
2023-01-18T14:43:48.539Z,8.20
2023-01-18T14:48:58.693Z,7.28
2023-01-18T14:54:05.110Z,6.72
2023-01-18T14:59:20.594Z,7.70
2023-01-18T15:04:28.278Z,7.20
2023-01-18T15:09:36.168Z,9.60
2023-01-18T15:14:44.346Z,7.38
2023-01-18T15:19:46.933Z,8.68
2023-01-18T15:24:48.556Z,9.35
2023-01-18T15:29:56.852Z,10.25
2023-01-18T15:35:00.168Z,11.63
2023-01-18T15:40:04.583Z,12.30
2023-01-18T15:45:18.500Z,11.18
2023-01-18T15:50:33.756Z,8.15
2023-01-18T15:55:49.356Z,9.95
2023-01-18T16:00:57.803Z,9.07
2023-01-18T16:06:07.368Z,8.43
2023-01-18T16:16:29.413Z,7.22
2023-01-18T16:21:53.081Z,7.90
2023-01-18T16:26:55.805Z,8.35
2023-01-18T16:32:18.006Z,8.73
2023-01-18T16:37:21.926Z,10.45
2023-01-18T16:42:37.023Z,8.40
2023-01-18T16:47:39.433Z,8.80
2023-01-18T16:52:40.997Z,8.20
2023-01-18T16:57:43.496Z,7.47
2023-01-18T17:02:45.866Z,7.65
2023-01-18T17:07:47.915Z,9.23
2023-01-18T17:12:49.488Z,10.48
2023-01-18T17:17:51.032Z,9.82
2023-01-18T17:22:54.061Z,8.55
2023-01-18T17:27:56.757Z,11.07
2023-01-18T17:32:58.634Z,11.52
2023-01-18T17:38:06.508Z,9.65
2023-01-18T17:43:17.371Z,9.48
2023-01-18T17:48:21.158Z,10.93
2023-01-18T17:53:22.817Z,10.38
2023-01-18T17:58:24.627Z,10.98
2023-01-18T18:03:26.149Z,10.85
2023-01-18T18:08:27.897Z,11.25
2023-01-18T18:13:30.576Z,10.52
2023-01-18T18:18:32.183Z,12.10
2023-01-18T18:23:34.998Z,9.52
2023-01-18T18:28:36.658Z,12.73
2023-01-18T18:33:38.156Z,9.02
2023-01-18T18:38:39.724Z,10.95
2023-01-18T18:43:41.255Z,10.80
2023-01-18T18:48:42.898Z,10.25
2023-01-18T18:53:44.432Z,10.63
2023-01-18T18:58:48.888Z,11.07
2023-01-18T19:03:51.953Z,11.82
2023-01-18T19:08:54.325Z,10.35
2023-01-18T19:13:56.702Z,10.05
2023-01-18T19:18:58.207Z,10.15
2023-01-18T19:23:59.779Z,10.20
2023-01-18T19:29:01.361Z,8.95
2023-01-18T19:34:05.293Z,10.30
2023-01-18T19:39:09.273Z,9.73
2023-01-18T19:49:20.139Z,8.82
2023-01-18T19:54:22.236Z,9.98
2023-01-18T19:59:23.787Z,9.30
2023-01-18T20:04:25.328Z,9.43
2023-01-18T20:09:38.326Z,9.90
2023-01-18T20:14:45.227Z,10.35
2023-01-18T20:19:47.080Z,10.68
2023-01-18T20:24:48.626Z,10.75
2023-01-18T20:29:50.672Z,11.13
2023-01-18T20:34:52.219Z,10.63
2023-01-18T20:39:55.915Z,10.63
2023-01-18T20:45:00.434Z,10.95
2023-01-18T20:50:03.318Z,11.73
2023-01-18T20:55:05.193Z,10.88
2023-01-18T21:00:08.064Z,10.30
2023-01-18T21:05:10.021Z,11.15
2023-01-18T21:10:11.866Z,11.65
2023-01-18T21:15:13.455Z,10.25
2023-01-18T21:20:15.289Z,10.07
2023-01-18T21:25:16.845Z,11.38
2023-01-18T21:30:18.905Z,16.10
2023-01-18T21:35:20.483Z,10.38
2023-01-18T21:40:22.036Z,10.73
2023-01-18T21:45:42.219Z,11.45
2023-01-18T21:51:02.371Z,10.48
2023-01-18T21:56:04.603Z,10.20
2023-01-18T22:01:14.908Z,10.70
2023-01-18T22:06:16.491Z,11.15
2023-01-18T22:11:18.052Z,11.68
2023-01-18T22:16:19.758Z,13.57
2023-01-18T22:21:25.171Z,13.15
2023-01-18T22:26:29.291Z,12.75
2023-01-18T22:31:30.851Z,12.07
2023-01-18T22:36:33.249Z,10.20
2023-01-18T22:41:34.776Z,11.00
2023-01-18T22:46:36.360Z,10.77
2023-01-18T22:51:38.111Z,11.40
2023-01-18T22:56:39.702Z,10.77
2023-01-18T23:01:41.239Z,11.85
2023-01-18T23:06:47.825Z,12.80
2023-01-18T23:11:49.664Z,15.38
2023-01-18T23:17:10.108Z,11.70
2023-01-18T23:22:11.646Z,13.10
2023-01-18T23:27:13.341Z,10.38
2023-01-18T23:32:15.004Z,12.85
2023-01-18T23:37:16.768Z,14.10
2023-01-18T23:42:36.964Z,12.43
2023-01-18T23:47:57.176Z,11.38
2023-01-18T23:53:20.608Z,10.60
2023-01-18T23:58:22.213Z,10.30
